createdAt,value
2022-11-25T00:01:14.588Z,2.20
2022-11-25T00:03:41.672Z,2.00
2022-11-25T00:06:28.375Z,2.30
2022-11-25T00:08:59.745Z,1.90
2022-11-25T00:13:53.484Z,1.40
2022-11-25T00:16:21.197Z,1.60
2022-11-25T00:18:49.046Z,1.20
2022-11-25T00:21:17.872Z,1.20
2022-11-25T00:23:44.711Z,1.30
2022-11-25T00:26:15.521Z,1.10
2022-11-25T00:28:43.351Z,1.10
2022-11-25T00:31:15.002Z,1.10
2022-11-25T00:33:41.800Z,1.50
2022-11-25T00:36:31.898Z,1.40
2022-11-25T00:39:00.241Z,1.50
2022-11-25T00:41:45.643Z,1.60
2022-11-25T00:44:33.950Z,1.50
2022-11-25T00:47:01.211Z,2.00
2022-11-25T00:49:27.780Z,1.80
2022-11-25T00:51:54.509Z,2.00
2022-11-25T00:56:48.075Z,2.30
2022-11-25T00:59:14.680Z,2.30
2022-11-25T01:04:08.444Z,2.20
2022-11-25T01:06:35.489Z,2.20
2022-11-25T01:09:02.047Z,2.10
2022-11-25T01:11:28.671Z,2.10
2022-11-25T01:14:00.955Z,2.00
2022-11-25T01:16:28.256Z,1.80
2022-11-25T01:18:54.929Z,1.80
2022-11-25T01:21:23.744Z,2.00
2022-11-25T01:23:50.523Z,2.10
2022-11-25T01:26:18.777Z,2.20
2022-11-25T01:28:45.440Z,2.00
2022-11-25T01:31:17.807Z,2.70
2022-11-25T01:33:44.906Z,2.30
2022-11-25T01:36:15.988Z,1.90
2022-11-25T01:38:42.782Z,2.40
2022-11-25T01:41:10.802Z,2.10
2022-11-25T01:46:28.066Z,2.30
2022-11-25T01:48:56.914Z,2.10
2022-11-25T01:51:28.726Z,2.00
2022-11-25T01:53:56.738Z,1.90
2022-11-25T01:58:50.325Z,2.30
2022-11-25T02:01:16.975Z,2.30
2022-11-25T02:03:46.055Z,2.20
2022-11-25T02:06:20.263Z,2.10
2022-11-25T02:08:51.832Z,1.90
2022-11-25T02:11:18.401Z,2.10
2022-11-25T02:13:45.845Z,2.00
2022-11-25T02:18:39.590Z,2.10
2022-11-25T02:21:07.144Z,2.50
2022-11-25T02:23:51.572Z,2.10
2022-11-25T02:26:18.141Z,2.50
2022-11-25T02:28:44.854Z,2.80
2022-11-25T02:31:11.482Z,2.60
2022-11-25T02:33:38.085Z,2.70
2022-11-25T02:36:16.084Z,2.40
2022-11-25T02:38:45.198Z,2.90
2022-11-25T02:41:18.732Z,2.70
2022-11-25T02:43:45.339Z,2.60
2022-11-25T02:46:17.373Z,2.80
2022-11-25T02:49:07.944Z,2.80
2022-11-25T02:51:33.786Z,3.00
2022-11-25T02:54:01.227Z,2.90
2022-11-25T02:56:29.796Z,2.90
2022-11-25T02:58:56.485Z,2.80
2022-11-25T03:01:23.733Z,2.90
2022-11-25T03:03:50.545Z,3.00
2022-11-25T03:06:17.110Z,3.10
2022-11-25T03:08:43.678Z,3.10
2022-11-25T03:11:10.272Z,3.40
2022-11-25T03:13:36.933Z,3.20
2022-11-25T03:16:03.706Z,3.30
2022-11-25T03:18:30.310Z,3.20
2022-11-25T03:20:57.124Z,3.20
2022-11-25T03:23:23.836Z,3.10
2022-11-25T03:25:50.430Z,3.00
2022-11-25T03:28:16.995Z,3.20
2022-11-25T03:30:43.688Z,2.90
2022-11-25T03:33:10.277Z,3.10
2022-11-25T03:35:36.876Z,3.20
2022-11-25T03:38:03.435Z,3.10
2022-11-25T03:40:30.048Z,3.10
2022-11-25T03:42:56.602Z,2.80
2022-11-25T03:45:23.162Z,3.10
2022-11-25T03:47:49.782Z,3.00
2022-11-25T03:50:16.672Z,3.20
2022-11-25T03:52:43.255Z,3.10
2022-11-25T03:55:09.964Z,3.20
2022-11-25T03:57:36.539Z,3.20
2022-11-25T04:00:03.574Z,3.20
2022-11-25T04:02:30.278Z,3.30
2022-11-25T04:04:56.914Z,3.40
2022-11-25T04:07:23.571Z,3.60
2022-11-25T04:09:50.234Z,3.70
2022-11-25T04:12:35.543Z,3.80
2022-11-25T04:15:02.173Z,3.80
2022-11-25T04:17:28.825Z,3.90
2022-11-25T04:19:55.490Z,4.00
2022-11-25T04:22:22.120Z,4.00
2022-11-25T04:24:48.857Z,4.00
2022-11-25T04:27:15.472Z,4.00
2022-11-25T04:29:42.119Z,4.00
2022-11-25T04:32:08.762Z,4.00
2022-11-25T04:34:35.664Z,4.10
2022-11-25T04:37:02.522Z,4.10
2022-11-25T04:39:29.143Z,4.10
2022-11-25T04:42:15.741Z,4.20
2022-11-25T04:44:42.347Z,4.30
2022-11-25T04:47:09.007Z,4.40
2022-11-25T04:49:35.717Z,4.50
2022-11-25T04:52:02.503Z,4.50
2022-11-25T04:54:29.141Z,4.60
2022-11-25T04:56:55.738Z,4.60
2022-11-25T04:59:40.538Z,4.50
2022-11-25T05:02:18.423Z,4.70
2022-11-25T05:04:45.822Z,4.70
2022-11-25T05:07:12.596Z,4.50
2022-11-25T05:09:39.285Z,4.50
2022-11-25T05:12:06.901Z,4.50
2022-11-25T05:14:35.712Z,4.40
2022-11-25T05:17:06.084Z,4.50
2022-11-25T05:19:33.164Z,4.50
2022-11-25T05:21:59.773Z,4.50
2022-11-25T05:24:26.464Z,4.60
2022-11-25T05:26:53.143Z,4.60
2022-11-25T05:29:19.844Z,4.60
2022-11-25T05:31:46.507Z,4.60
2022-11-25T05:34:13.128Z,4.70
2022-11-25T05:36:39.751Z,4.70
2022-11-25T05:39:06.484Z,4.70
2022-11-25T05:41:33.085Z,4.70
2022-11-25T05:43:59.770Z,4.70
2022-11-25T05:46:26.539Z,4.80
2022-11-25T05:48:56.976Z,4.80
2022-11-25T05:51:24.373Z,4.80
2022-11-25T05:53:51.254Z,4.80
2022-11-25T05:56:17.914Z,4.80
2022-11-25T05:58:44.602Z,4.80
2022-11-25T06:01:13.469Z,4.80
2022-11-25T06:03:40.286Z,4.80
2022-11-25T06:06:07.589Z,4.80
2022-11-25T06:08:34.409Z,4.80
2022-11-25T06:11:07.684Z,4.80
2022-11-25T06:13:34.718Z,4.80
2022-11-25T06:16:09.782Z,4.80
2022-11-25T06:18:37.418Z,4.90
2022-11-25T06:21:04.681Z,4.90
2022-11-25T06:23:31.548Z,4.90
2022-11-25T06:26:05.149Z,5.00
2022-11-25T06:28:31.945Z,5.00
2022-11-25T06:31:11.326Z,5.00
2022-11-25T06:33:38.058Z,5.10
2022-11-25T06:36:05.788Z,5.20
2022-11-25T06:38:32.475Z,5.20
2022-11-25T06:41:03.250Z,5.10
2022-11-25T06:43:30.289Z,5.20
2022-11-25T06:46:05.365Z,5.10
2022-11-25T06:48:32.313Z,5.20
2022-11-25T06:51:01.408Z,5.20
2022-11-25T06:53:28.306Z,5.20
2022-11-25T06:56:15.699Z,5.30
2022-11-25T06:58:42.666Z,5.30
2022-11-25T07:01:14.627Z,5.30
2022-11-25T07:03:41.944Z,5.30
2022-11-25T07:06:08.719Z,5.40
2022-11-25T07:08:35.431Z,5.40
2022-11-25T07:11:06.156Z,5.30
2022-11-25T07:13:32.942Z,5.40
2022-11-25T07:16:06.249Z,5.40
2022-11-25T07:18:33.933Z,5.30
2022-11-25T07:21:08.552Z,5.30
2022-11-25T07:23:35.588Z,5.40
2022-11-25T07:26:06.223Z,5.30
2022-11-25T07:28:33.236Z,5.40
2022-11-25T07:31:24.443Z,5.30
2022-11-25T07:33:55.813Z,5.40
2022-11-25T07:36:22.789Z,5.30
2022-11-25T07:38:49.454Z,5.30
2022-11-25T07:41:18.209Z,5.30
2022-11-25T07:43:48.554Z,5.30
2022-11-25T07:46:24.989Z,5.30
2022-11-25T07:48:54.576Z,5.30
2022-11-25T07:51:26.562Z,5.30
2022-11-25T07:53:54.243Z,5.30
2022-11-25T07:56:21.745Z,5.20
2022-11-25T07:58:48.626Z,5.20
2022-11-25T08:01:15.899Z,5.20
2022-11-25T08:03:43.205Z,5.20
2022-11-25T08:06:11.780Z,5.20
2022-11-25T08:08:38.747Z,5.20
2022-11-25T08:11:10.164Z,5.40
2022-11-25T08:13:36.861Z,5.30
2022-11-25T08:16:03.940Z,5.40
2022-11-25T08:18:30.704Z,5.40
2022-11-25T08:21:01.552Z,5.40
2022-11-25T08:23:28.242Z,5.50
2022-11-25T08:25:54.966Z,5.40
2022-11-25T08:28:21.717Z,5.50
2022-11-25T08:30:48.419Z,5.50
2022-11-25T08:33:15.071Z,5.50
2022-11-25T08:35:41.879Z,5.60
2022-11-25T08:38:09.091Z,5.60
2022-11-25T08:40:36.173Z,5.70
2022-11-25T08:43:03.545Z,5.70
2022-11-25T08:45:30.351Z,5.80
2022-11-25T08:47:57.522Z,5.80
2022-11-25T08:50:27.248Z,5.90
2022-11-25T08:52:53.978Z,5.90
2022-11-25T08:55:21.927Z,6.00
2022-11-25T08:57:48.627Z,6.00
2022-11-25T09:00:15.692Z,5.90
2022-11-25T09:02:42.439Z,6.00
2022-11-25T09:05:11.842Z,6.10
2022-11-25T09:07:38.558Z,6.00
2022-11-25T09:10:07.322Z,5.90
2022-11-25T09:12:34.123Z,5.90
2022-11-25T09:15:00.804Z,5.90
2022-11-25T09:17:27.503Z,5.90
2022-11-25T09:19:54.509Z,6.00
2022-11-25T09:22:21.131Z,6.00
2022-11-25T09:24:47.879Z,6.00
2022-11-25T09:27:14.518Z,6.00
2022-11-25T09:29:41.169Z,6.00
2022-11-25T09:32:07.831Z,6.00
2022-11-25T09:34:34.766Z,6.00
2022-11-25T09:37:01.683Z,6.00
2022-11-25T09:39:30.876Z,6.00
2022-11-25T09:42:28.360Z,6.10
2022-11-25T09:45:36.818Z,6.00
2022-11-25T09:48:40.625Z,6.10
2022-11-25T09:51:17.211Z,6.30
2022-11-25T09:54:07.916Z,6.40
2022-11-25T09:56:35.129Z,6.60
2022-11-25T09:59:18.126Z,6.70
2022-11-25T10:01:52.064Z,6.70
2022-11-25T10:04:34.219Z,6.70
2022-11-25T10:07:02.480Z,6.70
2022-11-25T10:09:30.734Z,6.70
2022-11-25T10:12:03.740Z,6.80
2022-11-25T10:14:31.746Z,6.70
2022-11-25T10:16:58.375Z,6.80
2022-11-25T10:19:38.953Z,6.80
2022-11-25T10:22:46.028Z,6.80
2022-11-25T10:25:13.987Z,6.80
2022-11-25T10:27:47.925Z,6.80
2022-11-25T10:30:22.689Z,6.80
2022-11-25T10:33:00.782Z,6.80
2022-11-25T10:35:32.775Z,6.80
2022-11-25T10:37:59.957Z,6.80
2022-11-25T10:40:26.662Z,6.80
2022-11-25T10:42:53.293Z,6.80
2022-11-25T10:45:23.004Z,6.90
2022-11-25T10:47:55.582Z,6.90
2022-11-25T10:50:58.110Z,7.00
2022-11-25T10:53:25.805Z,7.00
2022-11-25T10:56:17.374Z,7.00
2022-11-25T10:58:44.674Z,7.00
2022-11-25T11:01:18.520Z,7.10
2022-11-25T11:03:46.519Z,7.10
2022-11-25T11:06:31.608Z,7.10
2022-11-25T11:08:58.373Z,7.20
2022-11-25T11:11:25.029Z,7.20
2022-11-25T11:14:11.954Z,7.30
2022-11-25T11:16:42.957Z,7.30
2022-11-25T11:19:39.130Z,7.30
2022-11-25T11:22:17.975Z,7.30
2022-11-25T11:24:44.649Z,7.40
2022-11-25T11:27:23.568Z,7.50
2022-11-25T11:30:08.115Z,7.60
2022-11-25T11:32:34.738Z,7.70
2022-11-25T11:35:20.857Z,7.70
2022-11-25T11:37:53.098Z,7.80
2022-11-25T11:40:29.040Z,7.90
2022-11-25T11:43:26.733Z,7.90
2022-11-25T11:46:05.286Z,8.00
2022-11-25T11:48:40.956Z,8.20
2022-11-25T11:51:19.193Z,8.30
2022-11-25T11:53:50.319Z,8.40
2022-11-25T11:56:35.242Z,8.50
2022-11-25T11:59:31.395Z,8.50
2022-11-25T12:02:16.706Z,8.60
2022-11-25T12:05:02.087Z,8.70
2022-11-25T12:07:38.956Z,8.70
2022-11-25T12:10:14.568Z,8.70
2022-11-25T12:13:07.027Z,8.70
2022-11-25T12:15:38.506Z,8.80
2022-11-25T12:18:33.146Z,8.90
2022-11-25T12:21:01.836Z,9.00
2022-11-25T12:23:53.068Z,9.10
2022-11-25T12:26:47.283Z,9.20
2022-11-25T12:29:20.118Z,9.30
2022-11-25T12:31:53.935Z,9.10
2022-11-25T12:34:37.826Z,9.20
2022-11-25T12:37:13.475Z,9.10
2022-11-25T12:39:52.528Z,9.10
2022-11-25T12:42:22.890Z,9.10
2022-11-25T12:45:17.434Z,9.10
2022-11-25T12:47:44.600Z,9.10
2022-11-25T12:50:44.454Z,9.10
2022-11-25T12:53:39.753Z,9.20
2022-11-25T12:56:06.908Z,9.30
2022-11-25T12:58:57.104Z,9.30
2022-11-25T13:02:08.672Z,9.50
2022-11-25T13:04:46.610Z,9.20
2022-11-25T13:07:25.843Z,8.70
2022-11-25T13:09:55.593Z,9.10
2022-11-25T13:12:46.520Z,9.00
2022-11-25T13:15:41.819Z,9.30
2022-11-25T13:18:17.758Z,8.90
2022-11-25T13:20:54.046Z,8.80
2022-11-25T13:23:24.254Z,8.70
2022-11-25T13:25:51.807Z,8.30
2022-11-25T13:28:32.459Z,8.20
2022-11-25T13:31:19.775Z,8.30
2022-11-25T13:33:46.404Z,8.60
2022-11-25T13:36:26.472Z,8.30
2022-11-25T13:38:53.095Z,8.40
2022-11-25T13:41:19.770Z,9.00
2022-11-25T13:43:52.610Z,8.80
2022-11-25T13:46:48.050Z,8.70
2022-11-25T13:49:34.416Z,8.60
2022-11-25T13:52:25.835Z,8.50
2022-11-25T13:54:53.759Z,8.50
2022-11-25T13:57:34.776Z,8.40
2022-11-25T14:00:14.313Z,8.20
2022-11-25T14:02:45.070Z,8.10
2022-11-25T14:05:49.741Z,8.10
2022-11-25T14:08:21.129Z,8.30
2022-11-25T14:11:07.666Z,8.20
2022-11-25T14:13:37.107Z,8.20
2022-11-25T14:16:34.711Z,8.40
2022-11-25T14:19:50.118Z,8.10
2022-11-25T14:23:01.990Z,8.10
2022-11-25T14:26:01.902Z,8.20
2022-11-25T14:28:48.116Z,8.20
2022-11-25T14:31:25.597Z,8.30
2022-11-25T14:33:59.639Z,8.90
2022-11-25T14:36:34.962Z,8.20
2022-11-25T14:39:30.674Z,8.00
2022-11-25T14:42:08.561Z,8.30
2022-11-25T14:44:57.177Z,7.80
2022-11-25T14:47:28.207Z,7.90
2022-11-25T14:50:18.941Z,7.90
2022-11-25T14:52:44.069Z,7.60
2022-11-25T14:55:10.896Z,7.70
2022-11-25T14:57:39.741Z,7.70
2022-11-25T15:00:08.870Z,7.60
2022-11-25T15:02:37.012Z,7.60
2022-11-25T15:05:19.255Z,7.40
2022-11-25T15:08:15.195Z,7.50
2022-11-25T15:10:51.999Z,7.30
2022-11-25T15:13:41.425Z,7.30
2022-11-25T15:16:14.964Z,7.30
2022-11-25T15:18:58.503Z,7.30
2022-11-25T15:21:32.026Z,7.20
2022-11-25T15:23:58.655Z,7.20
2022-11-25T15:26:27.297Z,7.20
2022-11-25T15:29:10.716Z,7.20
2022-11-25T15:31:38.919Z,7.20
2022-11-25T15:34:07.429Z,6.90
2022-11-25T15:36:34.082Z,7.40
2022-11-25T15:39:19.746Z,7.10
2022-11-25T15:41:57.354Z,7.30
2022-11-25T15:44:24.852Z,7.30
2022-11-25T15:47:00.693Z,6.80
2022-11-25T15:49:27.434Z,6.70
2022-11-25T15:52:04.041Z,6.80
2022-11-25T15:54:39.577Z,6.80
2022-11-25T15:57:19.591Z,6.80
2022-11-25T16:00:09.774Z,6.80
2022-11-25T16:02:43.492Z,6.40
2022-11-25T16:05:13.511Z,6.70
2022-11-25T16:07:54.794Z,6.80
2022-11-25T16:13:29.181Z,6.40
2022-11-25T16:16:08.123Z,6.60
2022-11-25T16:18:53.060Z,6.80
2022-11-25T16:21:26.486Z,6.20
2022-11-25T16:24:26.317Z,6.00
2022-11-25T16:27:17.426Z,6.20
2022-11-25T16:29:52.622Z,6.40
2022-11-25T16:32:21.069Z,6.30
2022-11-25T16:34:47.815Z,6.00
2022-11-25T16:37:14.570Z,5.60
2022-11-25T16:39:41.279Z,6.00
2022-11-25T16:42:07.974Z,6.00
2022-11-25T16:44:35.119Z,6.00
2022-11-25T16:47:02.017Z,6.00
2022-11-25T16:49:29.861Z,6.10
2022-11-25T16:51:56.530Z,6.40
2022-11-25T16:54:23.329Z,6.50
2022-11-25T16:56:53.699Z,6.00
2022-11-25T16:59:41.291Z,6.10
2022-11-25T17:02:19.561Z,6.20
2022-11-25T17:07:32.242Z,6.30
2022-11-25T17:12:29.483Z,6.20
2022-11-25T17:14:56.249Z,6.20
2022-11-25T17:17:24.684Z,6.10
2022-11-25T17:19:52.795Z,6.00
2022-11-25T17:22:21.428Z,6.10
2022-11-25T17:27:28.270Z,6.10
2022-11-25T17:29:55.551Z,6.10
2022-11-25T17:32:22.280Z,6.20
2022-11-25T17:34:49.046Z,6.40
2022-11-25T17:39:43.333Z,6.60
2022-11-25T17:42:17.834Z,6.40
2022-11-25T17:44:46.690Z,6.20
2022-11-25T17:47:17.050Z,6.20
2022-11-25T17:52:12.414Z,6.20
2022-11-25T17:54:39.579Z,6.40
2022-11-25T17:57:06.629Z,6.70
2022-11-25T18:02:00.839Z,6.50
2022-11-25T18:04:37.323Z,6.40
2022-11-25T18:07:04.096Z,5.80
2022-11-25T18:09:30.825Z,5.80
2022-11-25T18:11:59.070Z,6.40
2022-11-25T18:14:40.760Z,6.10
2022-11-25T18:17:08.213Z,5.80
2022-11-25T18:19:35.047Z,6.30
2022-11-25T18:22:11.073Z,5.80
2022-11-25T18:24:38.095Z,5.90
2022-11-25T18:27:05.691Z,6.10
2022-11-25T18:29:32.346Z,5.60
2022-11-25T18:34:26.714Z,5.40
2022-11-25T18:36:53.470Z,5.90
2022-11-25T18:44:26.085Z,6.10
2022-11-25T18:46:53.128Z,5.60
2022-11-25T18:49:19.762Z,6.00
2022-11-25T18:54:13.977Z,6.10
2022-11-25T18:56:40.864Z,5.80
2022-11-25T18:59:11.338Z,5.50
2022-11-25T19:01:38.054Z,5.70
2022-11-25T19:04:04.819Z,5.40
2022-11-25T19:06:32.219Z,6.00
2022-11-25T19:08:59.602Z,5.80
2022-11-25T19:11:29.844Z,5.80
2022-11-25T19:14:01.281Z,5.60
2022-11-25T19:16:28.099Z,6.40
2022-11-25T19:18:54.855Z,5.80
2022-11-25T19:23:48.606Z,5.60
2022-11-25T19:26:21.830Z,5.80
2022-11-25T19:28:50.076Z,5.90
2022-11-25T19:33:45.553Z,5.60
2022-11-25T19:36:24.413Z,5.50
2022-11-25T19:38:51.255Z,5.40
2022-11-25T19:41:17.957Z,5.50
2022-11-25T19:43:44.575Z,5.80
2022-11-25T19:46:46.155Z,5.50
2022-11-25T19:49:17.723Z,5.70
2022-11-25T19:54:13.108Z,5.10
2022-11-25T19:56:40.203Z,4.90
2022-11-25T19:59:08.127Z,5.10
2022-11-25T20:01:35.820Z,4.70
2022-11-25T20:04:03.329Z,4.80
2022-11-25T20:06:30.611Z,5.40
2022-11-25T20:09:04.697Z,4.60
2022-11-25T20:11:34.892Z,4.80
2022-11-25T20:14:01.516Z,5.00
2022-11-25T20:16:31.039Z,4.50
2022-11-25T20:18:57.656Z,4.70
2022-11-25T20:21:28.275Z,4.40
2022-11-25T20:23:55.022Z,4.70
2022-11-25T20:26:32.384Z,4.30
2022-11-25T20:28:59.092Z,4.60
2022-11-25T20:31:30.468Z,4.50
2022-11-25T20:33:57.453Z,4.60
2022-11-25T20:36:31.892Z,4.90
2022-11-25T20:38:59.712Z,4.70
2022-11-25T20:41:28.128Z,4.70
2022-11-25T20:43:55.085Z,4.70
2022-11-25T20:46:29.374Z,4.80
2022-11-25T20:49:14.165Z,4.80
2022-11-25T20:51:40.819Z,4.70
2022-11-25T20:54:11.436Z,5.10
2022-11-25T20:56:38.039Z,4.80
2022-11-25T20:59:11.276Z,4.70
2022-11-25T21:01:37.985Z,4.70
2022-11-25T21:04:04.770Z,4.50
2022-11-25T21:06:37.839Z,4.50
2022-11-25T21:09:09.725Z,4.50
2022-11-25T21:11:36.349Z,4.40
2022-11-25T21:14:03.085Z,4.00
2022-11-25T21:16:29.983Z,4.50
2022-11-25T21:21:29.981Z,4.30
2022-11-25T21:23:56.645Z,4.20
2022-11-25T21:26:25.024Z,4.40
2022-11-25T21:28:52.186Z,6.50
2022-11-25T21:31:20.794Z,3.80
2022-11-25T21:33:47.614Z,4.00
2022-11-25T21:36:19.003Z,4.30
2022-11-25T21:38:46.146Z,3.90
2022-11-25T21:41:13.054Z,4.00
2022-11-25T21:43:44.709Z,4.30
2022-11-25T21:46:18.033Z,3.80
2022-11-25T21:48:44.824Z,4.40
2022-11-25T21:51:12.882Z,4.20
2022-11-25T21:53:39.566Z,4.40
2022-11-25T21:56:28.094Z,4.10
2022-11-25T21:58:55.490Z,4.00
2022-11-25T22:01:22.899Z,4.00
2022-11-25T22:03:49.625Z,4.20
2022-11-25T22:06:23.073Z,4.10
2022-11-25T22:08:49.995Z,4.00
2022-11-25T22:11:21.988Z,4.10
2022-11-25T22:16:17.947Z,4.30
2022-11-25T22:21:12.990Z,4.50
2022-11-25T22:23:39.936Z,4.40
2022-11-25T22:26:06.802Z,4.50
2022-11-25T22:28:33.478Z,4.60
2022-11-25T22:31:05.349Z,4.90
2022-11-25T22:33:36.409Z,4.80
2022-11-25T22:38:30.494Z,4.80
2022-11-25T22:40:59.668Z,4.90
2022-11-25T22:43:28.235Z,4.70
2022-11-25T22:48:27.196Z,4.60
2022-11-25T22:50:53.841Z,4.40
2022-11-25T22:53:20.516Z,4.90
2022-11-25T22:55:47.150Z,4.90
2022-11-25T22:58:14.188Z,4.60
2022-11-25T23:00:45.210Z,4.80
2022-11-25T23:03:29.257Z,5.10
2022-11-25T23:05:56.026Z,4.90
2022-11-25T23:08:24.050Z,5.20
2022-11-25T23:13:20.152Z,5.00
2022-11-25T23:15:53.197Z,5.40
2022-11-25T23:18:25.115Z,5.40
2022-11-25T23:20:51.747Z,5.40
2022-11-25T23:23:20.532Z,5.30
2022-11-25T23:25:47.507Z,5.20
2022-11-25T23:28:14.316Z,5.60
2022-11-25T23:30:41.961Z,5.70
2022-11-25T23:33:13.647Z,6.00
2022-11-25T23:38:07.752Z,5.80
2022-11-25T23:40:34.536Z,5.80
2022-11-25T23:43:02.871Z,6.30
2022-11-25T23:45:29.574Z,6.00
2022-11-25T23:47:56.876Z,5.60
2022-11-25T23:50:32.336Z,5.90
2022-11-25T23:53:03.658Z,5.90
2022-11-25T23:55:34.652Z,5.30
2022-11-25T23:58:19.068Z,5.40
